Time;durP1;ratioP1;P1;durP2;ratioP2;P2;SDS_P1;SDS_P2;PMS_P1;PMS_P2;Temp;Humidity;BMP_temperature;BMP_pressure;BME280_temperature;BME280_humidity;BME280_pressure;Samples;Min_cycle;Max_cycle;Signal;HPM_P1;HPM_P2
2023/02/08 00:01:15;;;;;;;16.52;9.35;;;;;;;1.41;83.76;103786.09;5095235;28;20565;-64
2023/02/08 00:03:43;;;;;;;15.38;9.02;;;;;;;1.31;83.89;103785.22;5078735;28;20047;-64
2023/02/08 00:06:11;;;;;;;13.70;8.88;;;;;;;1.22;84.56;103790.38;5086294;28;20484;-65
2023/02/08 00:08:40;;;;;;;14.45;9.05;;;;;;;1.21;84.67;103793.22;5105236;27;20499;-64
2023/02/08 00:11:11;;;;;;;13.43;8.85;;;;;;;1.14;84.79;103792.03;5115813;28;20051;-64
2023/02/08 00:13:40;;;;;;;15.93;9.60;;;;;;;1.06;84.92;103784.66;5115633;28;20047;-65
2023/02/08 00:16:09;;;;;;;15.27;9.18;;;;;;;1.00;85.30;103785.16;5100631;28;20430;-64
2023/02/08 00:18:37;;;;;;;13.65;9.25;;;;;;;1.04;85.89;103781.25;5102522;27;20063;-64
2023/02/08 00:21:13;;;;;;;15.02;8.82;;;;;;;1.14;86.13;103776.78;5117341;28;20402;-63
2023/02/08 00:23:41;;;;;;;16.25;9.43;;;;;;;1.21;85.81;103777.09;5120681;28;20047;-63
2023/02/08 00:26:09;;;;;;;16.73;8.88;;;;;;;1.25;85.32;103774.03;5122415;28;20028;-61
2023/02/08 00:28:38;;;;;;;15.70;9.07;;;;;;;1.32;85.01;103776.16;5101810;27;20517;-63
2023/02/08 00:31:06;;;;;;;15.73;9.68;;;;;;;1.31;84.00;103772.63;5082474;28;20052;-64
2023/02/08 00:33:34;;;;;;;18.42;10.02;;;;;;;1.25;83.98;103771.34;5097475;28;20048;-63
2023/02/08 00:36:04;;;;;;;14.63;9.00;;;;;;;1.24;83.62;103774.16;5134366;28;20043;-62
2023/02/08 00:38:32;;;;;;;13.43;9.07;;;;;;;1.18;83.55;103772.84;5138968;28;20108;-59
2023/02/08 00:41:00;;;;;;;15.15;8.63;;;;;;;1.14;83.53;103775.94;5121009;27;20043;-64
2023/02/08 00:43:27;;;;;;;13.75;8.65;;;;;;;1.07;83.71;103775.59;5115712;28;20131;-63
2023/02/08 00:45:56;;;;;;;15.50;8.82;;;;;;;0.98;83.55;103777.22;5113421;28;20040;-64
2023/02/08 00:48:25;;;;;;;15.23;8.90;;;;;;;0.93;83.99;103784.00;5116388;28;20051;-64
2023/02/08 00:50:57;;;;;;;16.35;8.95;;;;;;;0.89;84.02;103777.16;5102985;27;20044;-64
2023/02/08 00:53:25;;;;;;;15.05;9.23;;;;;;;0.88;84.74;103775.47;5114901;28;20527;-62
2023/02/08 00:55:54;;;;;;;12.43;8.57;;;;;;;0.86;85.16;103775.59;5090091;28;20076;-62
2023/02/08 00:58:22;;;;;;;13.43;8.35;;;;;;;0.91;85.34;103769.84;5077831;28;20377;-62
2023/02/08 01:00:51;;;;;;;14.38;9.43;;;;;;;0.97;85.19;103770.19;5098678;27;20385;-63
2023/02/08 01:03:23;;;;;;;14.90;9.13;;;;;;;1.00;84.77;103758.31;5061102;28;20048;-64
2023/02/08 01:05:51;;;;;;;15.10;8.68;;;;;;;1.02;84.96;103767.94;5094485;28;20067;-64
2023/02/08 01:08:20;;;;;;;15.50;10.38;;;;;;;1.04;84.91;103763.28;5093912;28;20056;-64
2023/02/08 01:10:48;;;;;;;14.80;8.80;;;;;;;1.05;84.46;103769.50;5096565;27;20043;-63
2023/02/08 01:13:16;;;;;;;15.30;9.55;;;;;;;1.07;84.68;103759.50;5114227;28;20047;-64
2023/02/08 01:15:43;;;;;;;13.57;8.73;;;;;;;1.09;84.87;103762.06;5114707;28;20043;-64
2023/02/08 01:18:11;;;;;;;13.13;8.52;;;;;;;1.10;84.18;103764.59;5113732;28;20067;-64
2023/02/08 01:20:41;;;;;;;13.02;8.38;;;;;;;1.08;84.14;103763.88;5097933;28;20047;-64
2023/02/08 01:23:09;;;;;;;14.93;9.27;;;;;;;1.08;84.23;103763.03;5112035;27;20131;-63
2023/02/08 01:25:37;;;;;;;17.13;9.70;;;;;;;1.05;83.78;103753.41;5109841;28;20114;-63
2023/02/08 01:28:05;;;;;;;12.90;8.77;;;;;;;1.02;84.37;103751.00;5093615;28;20457;-64
2023/02/08 01:30:33;;;;;;;16.52;9.20;;;;;;;1.00;84.10;103755.63;5094763;28;20050;-63
2023/02/08 01:33:00;;;;;;;14.15;8.23;;;;;;;0.95;83.77;103747.97;5083900;28;20051;-64
2023/02/08 01:35:28;;;;;;;17.27;9.23;;;;;;;0.89;84.29;103748.53;5093487;28;20056;-64
2023/02/08 01:37:57;;;;;;;14.55;8.60;;;;;;;0.81;84.49;103749.16;5077113;28;20048;-64
2023/02/08 01:40:24;;;;;;;13.93;8.95;;;;;;;0.76;84.84;103747.84;5106994;28;20122;-64
2023/02/08 01:42:52;;;;;;;16.00;8.50;;;;;;;0.75;85.44;103759.56;5110533;28;20123;-64
2023/02/08 01:45:28;;;;;;;14.30;8.63;;;;;;;0.80;85.70;103768.09;5102464;28;20117;-65
2023/02/08 01:48:03;;;;;;;14.68;8.45;;;;;;;0.88;85.74;103762.06;5094630;28;20072;-64
2023/02/08 01:50:35;;;;;;;13.52;9.00;;;;;;;0.93;85.12;103759.81;5093843;28;20066;-64
2023/02/08 01:53:04;;;;;;;13.77;8.80;;;;;;;0.97;84.71;103763.97;5095768;28;20456;-65
2023/02/08 01:55:35;;;;;;;15.82;9.18;;;;;;;0.99;84.55;103762.84;5092914;28;20055;-64
2023/02/08 01:58:05;;;;;;;13.38;8.50;;;;;;;1.00;83.83;103758.31;5104240;28;20122;-61
2023/02/08 02:00:33;;;;;;;14.63;8.60;;;;;;;0.97;83.87;103753.22;5096821;28;20050;-64
2023/02/08 02:03:01;;;;;;;13.00;8.40;;;;;;;0.91;83.96;103754.56;5082188;28;20089;-64
2023/02/08 02:05:49;;;;;;;17.98;9.45;;;;;;;0.89;83.82;103751.19;5075587;28;20048;-64
2023/02/08 02:08:17;;;;;;;16.80;9.43;;;;;;;0.84;83.63;103761.44;5095380;28;20404;-65
2023/02/08 02:10:48;;;;;;;14.05;8.70;;;;;;;0.80;84.31;103754.66;5092940;28;20048;-63
2023/02/08 02:13:24;;;;;;;13.43;8.13;;;;;;;0.82;84.21;103753.56;5093280;28;20131;-63
2023/02/08 02:15:54;;;;;;;13.43;8.75;;;;;;;0.84;83.95;103748.91;5074569;28;20442;-64
2023/02/08 02:18:28;;;;;;;16.17;9.80;;;;;;;0.82;83.95;103745.50;5067387;28;20057;-63
2023/02/08 02:21:24;;;;;;;14.20;8.35;;;;;;;0.78;84.25;103749.41;5116187;28;20457;-65
2023/02/08 02:24:07;;;;;;;14.02;9.07;;;;;;;0.76;84.21;103746.00;5082006;28;20063;-63
2023/02/08 02:26:49;;;;;;;16.42;9.10;;;;;;;0.75;84.20;103749.69;5083443;28;20040;-64
2023/02/08 02:29:23;;;;;;;14.23;9.07;;;;;;;0.74;84.02;103739.91;5055270;28;20089;-64
2023/02/08 02:32:03;;;;;;;14.30;8.52;;;;;;;0.74;84.00;103737.22;5095009;28;20052;-64
2023/02/08 02:34:48;;;;;;;16.75;8.88;;;;;;;0.72;83.97;103739.22;5094678;27;20073;-65
2023/02/08 02:37:36;;;;;;;16.15;9.60;;;;;;;0.69;83.95;103741.28;5093390;28;20066;-64
2023/02/08 02:40:25;;;;;;;12.20;8.60;;;;;;;0.68;83.70;103740.47;5114331;28;20583;-64
2023/02/08 02:46:24;;;;;;;12.70;8.38;;;;;;;0.62;84.31;103740.97;5105248;28;20403;-64
2023/02/08 02:49:27;;;;;;;15.05;8.82;;;;;;;0.63;84.41;103740.00;5111971;28;20061;-62
2023/02/08 02:52:10;;;;;;;15.20;9.15;;;;;;;0.62;84.17;103738.28;5095902;28;20104;-63
2023/02/08 02:54:41;;;;;;;13.27;8.95;;;;;;;0.62;83.83;103738.28;5113737;28;20406;-65
2023/02/08 02:57:14;;;;;;;14.02;8.68;;;;;;;0.58;83.90;103736.84;5094076;28;20046;-63
2023/02/08 02:59:44;;;;;;;13.00;8.65;;;;;;;0.59;83.76;103730.50;5112605;28;20392;-63
2023/02/08 03:02:12;;;;;;;14.30;8.75;;;;;;;0.62;84.03;103732.91;5095943;28;20051;-64
2023/02/08 03:04:40;;;;;;;16.65;8.73;;;;;;;0.64;83.84;103731.81;5112631;28;20043;-64
2023/02/08 03:07:17;;;;;;;15.43;9.23;;;;;;;0.65;83.64;103716.56;5110508;28;20548;-64
2023/02/08 03:09:47;;;;;;;14.50;8.57;;;;;;;0.62;82.67;103717.66;5112189;28;20074;-63
2023/02/08 03:12:30;;;;;;;14.48;8.68;;;;;;;0.59;82.91;103717.09;5113742;28;20045;-62
2023/02/08 03:15:09;;;;;;;15.43;9.43;;;;;;;0.60;83.08;103724.13;5113033;28;20051;-62
2023/02/08 03:17:43;;;;;;;15.43;9.15;;;;;;;0.62;82.46;103725.72;5102566;28;20039;-64
2023/02/08 03:20:17;;;;;;;16.65;9.30;;;;;;;0.60;82.00;103725.00;5092283;28;20056;-63
2023/02/08 03:22:57;;;;;;;14.13;9.00;;;;;;;0.60;82.07;103729.50;5092659;28;20048;-63
2023/02/08 03:26:06;;;;;;;15.50;9.68;;;;;;;0.61;81.99;103728.53;5093152;28;20066;-64
2023/02/08 03:28:45;;;;;;;14.07;8.95;;;;;;;0.57;81.12;103730.63;5095534;28;20040;-65
2023/02/08 03:31:18;;;;;;;14.75;8.77;;;;;;;0.57;81.22;103727.94;5100598;28;20438;-64
2023/02/08 03:34:02;;;;;;;15.02;8.85;;;;;;;0.57;81.14;103727.94;5112881;28;20044;-65
2023/02/08 03:36:35;;;;;;;16.42;9.50;;;;;;;0.58;81.14;103729.66;5107266;28;20059;-64
2023/02/08 03:39:07;;;;;;;13.77;9.35;;;;;;;0.53;80.19;103723.81;5094503;28;20050;-64
2023/02/08 03:41:39;;;;;;;13.50;9.38;;;;;;;0.47;80.43;103726.16;5075408;28;20054;-64
2023/02/08 03:44:12;;;;;;;18.30;9.32;;;;;;;0.46;81.00;103717.28;5092985;28;20067;-64
2023/02/08 03:47:04;;;;;;;14.05;9.55;;;;;;;0.50;81.58;103725.91;5074917;28;20102;-63
2023/02/08 03:49:34;;;;;;;16.15;9.23;;;;;;;0.53;81.35;103729.19;5075521;28;20054;-63
2023/02/08 03:52:05;;;;;;;18.08;10.05;;;;;;;0.57;80.70;103721.72;5078574;28;20066;-64
2023/02/08 03:54:39;;;;;;;14.02;9.13;;;;;;;0.62;80.38;103722.19;5095895;28;20472;-63
2023/02/08 03:57:23;;;;;;;14.45;8.75;;;;;;;0.62;80.48;103714.13;5095504;28;20036;-63
2023/02/08 04:00:06;;;;;;;15.70;9.23;;;;;;;0.62;80.54;103732.91;5103321;27;20062;-64
2023/02/08 04:02:47;;;;;;;15.65;8.95;;;;;;;0.59;80.41;103734.03;5116017;28;20054;-64
2023/02/08 04:05:15;;;;;;;15.50;9.40;;;;;;;0.59;80.54;103725.13;5115708;28;20071;-64
2023/02/08 04:07:43;;;;;;;14.07;9.20;;;;;;;0.60;80.23;103730.38;5107299;28;20479;-64
2023/02/08 04:10:11;;;;;;;16.30;9.48;;;;;;;0.60;79.72;103732.19;5112089;28;20050;-62
2023/02/08 04:12:39;;;;;;;13.73;9.57;;;;;;;0.57;79.87;103729.78;5096631;28;20123;-63
2023/02/08 04:15:07;;;;;;;17.50;9.20;;;;;;;0.53;79.58;103733.69;5096446;28;20068;-63
2023/02/08 04:17:34;;;;;;;13.85;9.40;;;;;;;0.50;79.07;103728.59;5111308;28;20054;-60
2023/02/08 04:20:02;;;;;;;14.25;8.80;;;;;;;0.45;79.48;103725.44;5111160;27;20048;-64
2023/02/08 04:22:30;;;;;;;15.70;9.35;;;;;;;0.45;79.83;103730.81;5087626;28;20456;-63
2023/02/08 04:24:58;;;;;;;15.68;9.07;;;;;;;0.44;79.95;103723.75;5104644;28;20050;-64
2023/02/08 04:27:25;;;;;;;15.38;8.93;;;;;;;0.47;79.98;103726.16;5092173;28;20048;-59
2023/02/08 04:29:53;;;;;;;13.00;9.18;;;;;;;0.48;79.61;103726.06;5135196;27;20049;-57
2023/02/08 04:32:21;;;;;;;16.02;9.35;;;;;;;0.47;79.01;103735.06;5119292;28;20062;-61
2023/02/08 04:34:48;;;;;;;16.48;9.20;;;;;;;0.49;79.22;103726.91;5110686;28;20074;-63
2023/02/08 04:37:16;;;;;;;14.77;9.32;;;;;;;0.45;78.37;103728.97;5095936;28;20432;-63
2023/02/08 04:39:44;;;;;;;14.30;9.52;;;;;;;0.45;78.59;103736.19;5097409;27;20047;-64
2023/02/08 04:42:11;;;;;;;14.32;8.90;;;;;;;0.45;78.40;103733.50;5096812;28;20052;-62
2023/02/08 04:44:39;;;;;;;13.45;9.25;;;;;;;0.42;78.17;103740.81;5095946;28;20105;-63
2023/02/08 04:47:06;;;;;;;13.82;9.40;;;;;;;0.39;78.41;103743.75;5102636;28;20052;-65
2023/02/08 04:49:34;;;;;;;15.35;9.55;;;;;;;0.39;78.10;103740.22;5114172;28;20039;-65
2023/02/08 04:52:02;;;;;;;13.80;8.88;;;;;;;0.35;78.17;103738.78;5111762;27;20082;-64
2023/02/08 04:54:30;;;;;;;14.70;9.30;;;;;;;0.34;78.04;103740.63;5094663;28;20052;-65
2023/02/08 04:56:57;;;;;;;14.18;9.05;;;;;;;0.31;78.18;103746.22;5105395;28;20044;-63
2023/02/08 04:59:25;;;;;;;15.13;9.13;;;;;;;0.25;78.12;103740.53;5115150;28;20491;-63
2023/02/08 05:01:53;;;;;;;16.85;8.90;;;;;;;0.19;78.91;103744.56;5113807;28;20054;-64
2023/02/08 05:04:21;;;;;;;15.18;9.32;;;;;;;0.17;78.50;103741.16;5096369;28;20075;-64
2023/02/08 05:06:48;;;;;;;13.68;9.23;;;;;;;0.20;79.34;103732.88;5094677;28;20048;-63
2023/02/08 05:09:16;;;;;;;14.13;9.43;;;;;;;0.14;78.74;103733.34;5110761;27;20456;-63
2023/02/08 05:11:44;;;;;;;15.25;8.98;;;;;;;0.11;78.98;103733.63;5114415;28;20518;-65
2023/02/08 05:14:12;;;;;;;14.52;9.40;;;;;;;0.09;78.73;103736.41;5102556;28;20040;-65
2023/02/08 05:16:39;;;;;;;18.13;9.82;;;;;;;0.04;79.45;103740.47;5104198;28;20048;-63
2023/02/08 05:19:08;;;;;;;14.85;9.45;;;;;;;0.04;79.83;103737.78;5114356;27;20056;-63
2023/02/08 05:21:35;;;;;;;17.25;9.68;;;;;;;0.11;79.25;103734.47;5116104;28;20044;-64
2023/02/08 05:24:03;;;;;;;14.90;8.93;;;;;;;0.13;78.52;103731.66;5113543;28;20519;-63
2023/02/08 05:26:31;;;;;;;16.92;9.48;;;;;;;0.14;78.43;103741.41;5111935;28;20144;-64
2023/02/08 05:28:58;;;;;;;16.20;9.10;;;;;;;0.14;78.59;103731.53;5114471;27;20043;-63
2023/02/08 05:31:26;;;;;;;17.33;9.77;;;;;;;0.17;78.88;103725.09;5114918;28;20047;-65
2023/02/08 05:33:54;;;;;;;19.08;9.75;;;;;;;0.18;78.70;103724.94;5114866;28;20097;-64
2023/02/08 05:36:23;;;;;;;15.05;9.30;;;;;;;0.20;78.82;103722.13;5104379;28;20098;-65
2023/02/08 05:38:52;;;;;;;17.08;10.35;;;;;;;0.19;78.05;103725.78;5114754;28;20055;-65
2023/02/08 05:41:19;;;;;;;15.60;9.93;;;;;;;0.16;78.42;103720.69;5114528;28;20415;-65
2023/02/08 05:43:47;;;;;;;15.95;10.25;;;;;;;0.18;78.59;103718.72;5114403;28;20120;-64
2023/02/08 05:46:15;;;;;;;16.58;10.40;;;;;;;0.18;78.44;103714.22;5097784;28;20078;-63
2023/02/08 05:48:43;;;;;;;15.85;10.27;;;;;;;0.21;78.31;103707.75;5076311;28;20044;-63
2023/02/08 05:51:10;;;;;;;18.45;9.93;;;;;;;0.19;78.26;103715.06;5109328;27;20104;-63
2023/02/08 05:53:38;;;;;;;14.88;10.05;;;;;;;0.17;77.63;103711.69;5113165;28;20058;-63
2023/02/08 05:56:06;;;;;;;15.80;10.43;;;;;;;0.10;77.33;103710.47;5084703;28;20052;-63
2023/02/08 05:58:34;;;;;;;16.08;10.48;;;;;;;0.05;78.47;103718.03;5094761;28;20044;-64
2023/02/08 06:01:06;;;;;;;16.20;10.40;;;;;;;0.03;78.05;103710.13;5103697;27;20053;-64
2023/02/08 06:03:34;;;;;;;15.55;9.50;;;;;;;0.00;78.05;103718.44;5113209;28;20039;-64
2023/02/08 06:06:01;;;;;;;17.52;10.38;;;;;;;-0.01;77.62;103719.41;5113113;28;20072;-64
2023/02/08 06:08:29;;;;;;;16.75;10.25;;;;;;;-0.01;78.08;103716.72;5114426;28;20054;-64
2023/02/08 06:10:56;;;;;;;16.67;10.35;;;;;;;0.01;78.03;103721.97;5114116;28;20050;-64
2023/02/08 06:13:24;;;;;;;20.88;12.27;;;;;;;0.05;78.01;103720.72;5113420;28;20076;-64
2023/02/08 06:15:52;;;;;;;18.13;11.32;;;;;;;0.06;77.34;103722.44;5103654;28;20047;-64
2023/02/08 06:18:20;;;;;;;20.02;11.43;;;;;;;0.04;77.69;103713.66;5104720;28;20039;-64
2023/02/08 06:20:48;;;;;;;19.38;10.32;;;;;;;0.05;77.93;103713.53;5110137;28;20115;-65
2023/02/08 06:23:15;;;;;;;17.90;10.57;;;;;;;0.06;77.70;103717.91;5100400;27;20040;-65
2023/02/08 06:25:43;;;;;;;18.00;9.93;;;;;;;0.05;76.88;103712.66;5106413;28;20067;-65
2023/02/08 06:28:11;;;;;;;18.40;9.90;;;;;;;0.02;76.67;103708.41;5116846;28;20067;-64
2023/02/08 06:30:39;;;;;;;15.13;9.63;;;;;;;0.00;77.06;103713.06;5113798;28;20502;-64
2023/02/08 06:33:07;;;;;;;14.80;9.68;;;;;;;-0.06;76.55;103711.72;5112420;27;20115;-64
2023/02/08 06:35:34;;;;;;;17.60;11.27;;;;;;;-0.15;77.03;103712.47;5103360;28;20052;-64
2023/02/08 06:38:02;;;;;;;15.80;10.63;;;;;;;-0.19;77.51;103710.19;5093585;28;20048;-64
2023/02/08 06:40:30;;;;;;;20.25;10.85;;;;;;;-0.21;77.33;103713.00;5094467;28;20071;-64
2023/02/08 06:42:57;;;;;;;18.08;10.48;;;;;;;-0.26;77.04;103717.88;4395377;27;10000469;-65
2023/02/08 06:45:25;;;;;;;16.63;11.32;;;;;;;-0.29;77.79;103710.06;5097345;28;20151;-64
2023/02/08 06:47:53;;;;;;;17.20;11.00;;;;;;;-0.33;78.66;103712.16;5105742;28;20063;-65
2023/02/08 06:50:22;;;;;;;20.38;11.50;;;;;;;-0.34;78.22;103717.63;5110100;28;20059;-64
2023/02/08 06:52:50;;;;;;;18.25;10.90;;;;;;;-0.32;77.95;103718.38;5098199;28;20044;-65
2023/02/08 06:55:18;;;;;;;19.70;11.35;;;;;;;-0.26;79.12;103705.34;5101708;28;20056;-66
2023/02/08 06:57:45;;;;;;;20.13;10.88;;;;;;;-0.18;78.14;103707.38;5113093;28;20356;-64
2023/02/08 07:00:14;;;;;;;19.08;10.75;;;;;;;-0.15;78.19;103707.13;5103568;28;20121;-65
2023/02/08 07:02:41;;;;;;;18.27;10.65;;;;;;;-0.15;77.85;103703.59;5111525;28;20558;-64
2023/02/08 07:05:09;;;;;;;19.33;10.93;;;;;;;-0.13;78.13;103705.16;5101361;28;20075;-66
2023/02/08 07:07:37;;;;;;;19.15;10.98;;;;;;;-0.07;78.24;103704.69;5117445;28;20043;-64
2023/02/08 07:10:05;;;;;;;18.05;10.55;;;;;;;-0.02;77.41;103693.59;5108382;28;20051;-64
2023/02/08 07:12:33;;;;;;;18.33;10.20;;;;;;;-0.05;77.05;103697.38;5112065;28;20442;-65
2023/02/08 07:15:01;;;;;;;15.13;10.27;;;;;;;-0.14;77.01;103698.13;5108272;28;20055;-65
2023/02/08 07:17:29;;;;;;;14.65;9.70;;;;;;;-0.17;77.62;103711.75;5108555;28;20044;-64
2023/02/08 07:19:56;;;;;;;15.02;10.02;;;;;;;-0.18;78.04;103714.56;5109658;28;20069;-63
2023/02/08 07:22:24;;;;;;;16.38;10.13;;;;;;;-0.19;78.01;103719.09;5109998;28;20043;-63
2023/02/08 07:24:51;;;;;;;16.75;10.43;;;;;;;-0.18;78.06;103707.38;5109088;28;20044;-64
2023/02/08 07:27:19;;;;;;;20.83;10.63;;;;;;;-0.11;77.71;103703.22;5091948;28;20053;-64
2023/02/08 07:29:47;;;;;;;17.00;10.68;;;;;;;-0.06;78.31;103711.72;5095421;28;20055;-65
2023/02/08 07:32:15;;;;;;;16.92;10.30;;;;;;;-0.01;79.07;103706.84;5114309;28;20471;-64
2023/02/08 07:34:42;;;;;;;16.88;10.25;;;;;;;-0.01;78.17;103706.84;5112363;28;20052;-63
2023/02/08 07:37:10;;;;;;;19.65;10.85;;;;;;;-0.04;77.44;103709.78;5112524;28;20056;-62
2023/02/08 07:39:38;;;;;;;20.35;9.80;;;;;;;-0.02;77.35;103715.88;5114067;28;20043;-62
2023/02/08 07:42:07;;;;;;;17.98;10.20;;;;;;;0.00;78.14;103705.03;5112124;28;20422;-63
2023/02/08 07:44:41;;;;;;;15.70;10.00;;;;;;;0.03;77.23;103703.94;5110222;28;20118;-63
2023/02/08 07:47:09;;;;;;;14.95;9.90;;;;;;;0.02;77.38;103696.84;5112773;28;20294;-63
2023/02/08 07:49:37;;;;;;;15.43;9.98;;;;;;;0.04;76.85;103700.25;5096938;28;20049;-63
2023/02/08 07:52:05;;;;;;;15.27;9.60;;;;;;;0.07;77.51;103700.84;5092106;28;20051;-63
2023/02/08 07:54:32;;;;;;;19.15;9.70;;;;;;;0.08;77.15;103699.88;5081226;27;20055;-63
2023/02/08 07:57:00;;;;;;;14.45;9.93;;;;;;;0.12;77.12;103708.50;5109876;27;20100;-62
2023/02/08 07:59:30;;;;;;;13.95;9.68;;;;;;;0.14;76.86;103703.88;5112955;28;20043;-62
2023/02/08 08:01:57;;;;;;;15.55;9.93;;;;;;;0.18;76.38;103699.97;5111828;27;20054;-64
2023/02/08 08:04:25;;;;;;;15.15;9.25;;;;;;;0.24;76.70;103696.78;5106662;28;20044;-62
2023/02/08 08:06:53;;;;;;;15.60;10.07;;;;;;;0.26;76.14;103694.78;5103074;28;20048;-63
2023/02/08 08:09:20;;;;;;;17.15;10.27;;;;;;;0.31;76.41;103691.72;5112623;28;20044;-62
2023/02/08 08:11:48;;;;;;;14.90;9.27;;;;;;;0.36;76.40;103690.38;5100960;28;20055;-61
2023/02/08 08:14:16;;;;;;;17.20;9.70;;;;;;;0.38;75.78;103693.75;5106569;28;20047;-62
2023/02/08 08:16:43;;;;;;;15.15;9.82;;;;;;;0.40;75.31;103696.31;5121621;28;20043;-63
2023/02/08 08:19:11;;;;;;;20.20;10.13;;;;;;;0.41;75.88;103693.53;5110582;28;20048;-64
2023/02/08 08:21:39;;;;;;;15.43;10.50;;;;;;;0.41;75.45;103698.88;5111379;28;20399;-63
2023/02/08 08:24:07;;;;;;;15.45;9.52;;;;;;;0.41;74.94;103709.63;5119907;28;20585;-63
2023/02/08 08:26:34;;;;;;;16.85;10.85;;;;;;;0.44;75.31;103710.34;5132606;28;20052;-61
2023/02/08 08:29:02;;;;;;;16.20;9.73;;;;;;;0.47;75.08;103696.66;5123010;28;20054;-64
2023/02/08 08:31:30;;;;;;;16.48;10.07;;;;;;;0.48;74.77;103698.34;5113454;28;20051;-63
2023/02/08 08:33:58;;;;;;;18.92;10.38;;;;;;;0.44;74.71;103696.94;5112971;28;20077;-61
2023/02/08 08:36:25;;;;;;;17.17;11.23;;;;;;;0.42;75.06;103708.63;5112985;28;20051;-64
2023/02/08 08:38:53;;;;;;;16.48;10.82;;;;;;;0.41;75.20;103698.88;5115543;28;20047;-63
2023/02/08 08:41:26;;;;;;;15.57;11.18;;;;;;;0.44;74.82;103702.28;5116439;28;20063;-62
2023/02/08 08:43:53;;;;;;;17.58;10.88;;;;;;;0.54;75.62;103695.16;5109326;27;20039;-63
2023/02/08 08:46:21;;;;;;;15.65;11.93;;;;;;;0.53;74.19;103696.13;5098484;27;20048;-63
2023/02/08 08:48:50;;;;;;;17.75;11.75;;;;;;;0.52;74.41;103694.44;5092950;27;20051;-63
2023/02/08 08:51:18;;;;;;;20.40;11.68;;;;;;;0.50;74.82;103699.09;5112228;27;20043;-63
2023/02/08 08:53:45;;;;;;;17.45;10.88;;;;;;;0.51;74.91;103693.59;5111393;28;20043;-63
2023/02/08 08:56:13;;;;;;;17.40;10.55;;;;;;;0.54;74.53;103697.84;5109499;27;20061;-63
2023/02/08 08:58:42;;;;;;;18.40;10.13;;;;;;;0.60;74.68;103686.56;5107226;28;20134;-62
2023/02/08 09:01:12;;;;;;;17.98;11.00;;;;;;;0.64;74.38;103688.03;5097191;28;20056;-64
2023/02/08 09:03:39;;;;;;;16.83;10.93;;;;;;;0.63;74.46;103683.66;5106665;28;20048;-63
2023/02/08 09:06:07;;;;;;;18.30;10.73;;;;;;;0.64;74.61;103682.66;5112528;27;20044;-64
2023/02/08 09:08:35;;;;;;;16.17;10.68;;;;;;;0.66;74.67;103691.44;5100044;28;20044;-61
2023/02/08 09:11:11;;;;;;;16.65;10.52;;;;;;;0.68;74.59;103685.94;5098032;28;20077;-63
2023/02/08 09:13:39;;;;;;;15.35;10.48;;;;;;;0.69;74.33;103698.38;5104792;28;20126;-63
2023/02/08 09:16:13;;;;;;;19.35;12.00;;;;;;;0.70;76.53;103695.56;5104664;27;20058;-62
2023/02/08 09:18:41;;;;;;;20.40;11.93;;;;;;;0.74;75.86;103688.09;5110679;27;20040;-62
2023/02/08 09:21:12;;;;;;;19.42;12.00;;;;;;;0.79;77.38;103691.22;5116817;28;20104;-61
2023/02/08 09:23:39;;;;;;;18.75;12.45;;;;;;;0.81;76.55;103695.47;5113301;28;20039;-62
2023/02/08 09:26:09;;;;;;;19.42;12.98;;;;;;;0.81;75.75;103692.78;5114156;28;20066;-60
2023/02/08 09:28:37;;;;;;;18.70;11.95;;;;;;;0.79;75.66;103684.00;5115503;28;20048;-61
2023/02/08 09:31:25;;;;;;;25.20;13.68;;;;;;;0.76;75.45;103686.97;5115347;28;20058;-61
2023/02/08 09:33:54;;;;;;;21.30;12.35;;;;;;;0.73;76.28;103695.28;5082092;28;20064;-61
2023/02/08 09:36:24;;;;;;;18.10;12.48;;;;;;;0.76;76.03;103695.00;5094670;28;20062;-64
2023/02/08 09:38:59;;;;;;;16.58;11.73;;;;;;;0.77;76.29;103687.81;5077087;28;20051;-61
2023/02/08 09:41:31;;;;;;;17.08;11.27;;;;;;;0.82;76.18;103691.81;5094963;28;20505;-62
2023/02/08 09:44:18;;;;;;;19.40;11.15;;;;;;;0.89;75.83;103691.28;5094891;28;20071;-61
2023/02/08 09:47:02;;;;;;;17.00;11.35;;;;;;;0.92;74.81;103691.03;5095251;28;20054;-63
2023/02/08 09:49:42;;;;;;;19.00;11.05;;;;;;;0.94;74.77;103689.03;5112580;27;20066;-61
2023/02/08 09:52:14;;;;;;;14.85;10.07;;;;;;;1.00;74.86;103688.53;5114936;28;20048;-62
2023/02/08 09:54:52;;;;;;;14.07;9.70;;;;;;;1.03;74.52;103694.47;5112616;28;20487;-63
2023/02/08 09:57:25;;;;;;;18.15;10.20;;;;;;;1.11;75.11;103695.63;5109991;28;20047;-61
2023/02/08 09:59:56;;;;;;;16.55;9.77;;;;;;;1.20;75.34;103698.38;5096592;28;20047;-62
2023/02/08 10:02:33;;;;;;;15.75;10.20;;;;;;;1.23;74.48;103697.25;5094131;27;20044;-63
2023/02/08 10:05:07;;;;;;;15.88;9.77;;;;;;;1.30;75.23;103695.72;5094308;28;20050;-62
2023/02/08 10:07:35;;;;;;;15.10;10.63;;;;;;;1.31;74.81;103697.41;5091440;28;20372;-64
2023/02/08 10:10:06;;;;;;;15.65;9.63;;;;;;;1.32;74.81;103698.25;5113211;28;20498;-62
2023/02/08 10:13:12;;;;;;;18.25;10.30;;;;;;;1.31;74.54;103704.63;5114665;28;20399;-64
2023/02/08 10:15:56;;;;;;;17.55;10.07;;;;;;;1.30;75.58;103705.59;5112861;27;20411;-64
2023/02/08 10:18:45;;;;;;;17.10;10.70;;;;;;;1.35;75.92;103709.59;5095985;28;20048;-63
2023/02/08 10:21:44;;;;;;;17.55;10.93;;;;;;;1.35;74.92;103711.41;5112918;28;20058;-62
2023/02/08 10:24:24;;;;;;;14.40;10.55;;;;;;;1.34;75.78;103717.78;5112887;28;20036;-63
2023/02/08 10:27:15;;;;;;;17.67;10.40;;;;;;;1.37;75.44;103715.69;5093503;28;20462;-63
2023/02/08 10:30:03;;;;;;;16.40;10.52;;;;;;;1.43;75.85;103711.59;5090858;28;20043;-63
2023/02/08 10:32:46;;;;;;;15.40;9.88;;;;;;;1.49;75.72;103711.91;5114405;28;20047;-62
2023/02/08 10:35:23;;;;;;;15.95;9.95;;;;;;;1.55;75.01;103707.81;5100369;28;20044;-62
2023/02/08 10:37:51;;;;;;;19.23;10.30;;;;;;;1.60;74.49;103713.63;5093014;28;20135;-63
2023/02/08 10:40:29;;;;;;;16.65;10.38;;;;;;;1.62;73.13;103711.66;5114612;28;20063;-63
2023/02/08 10:43:30;;;;;;;17.35;12.35;;;;;;;1.61;71.88;103712.66;5112891;28;20047;-63
2023/02/08 10:46:26;;;;;;;17.42;11.00;;;;;;;1.62;72.71;103711.66;5111474;28;20048;-62
2023/02/08 10:49:12;;;;;;;18.33;11.40;;;;;;;1.61;72.43;103701.91;5118093;28;20152;-63
2023/02/08 10:51:40;;;;;;;18.80;11.50;;;;;;;1.69;72.37;103693.16;5114411;28;20055;-64
2023/02/08 10:54:16;;;;;;;18.17;11.18;;;;;;;1.74;72.70;103698.13;5108761;28;20253;-63
2023/02/08 10:56:50;;;;;;;16.88;11.25;;;;;;;1.77;71.08;103700.53;5110370;28;20475;-65
2023/02/08 10:59:30;;;;;;;15.90;10.20;;;;;;;1.77;70.30;103687.09;5093704;28;20042;-65
2023/02/08 11:01:58;;;;;;;16.77;10.20;;;;;;;1.83;71.20;103691.91;5098400;28;20535;-65
2023/02/08 11:04:26;;;;;;;19.17;10.68;;;;;;;1.87;71.81;103694.16;5101461;28;20110;-64
2023/02/08 11:06:54;;;;;;;22.52;11.15;;;;;;;1.88;71.46;103685.13;5102443;28;20044;-63
2023/02/08 11:09:28;;;;;;;16.48;11.18;;;;;;;1.88;71.54;103684.28;5112816;28;20078;-63
2023/02/08 11:11:57;;;;;;;16.98;10.90;;;;;;;1.89;71.47;103692.19;5096228;28;20044;-64
2023/02/08 11:14:26;;;;;;;16.67;10.60;;;;;;;1.94;72.31;103689.09;5110906;28;20044;-64
2023/02/08 11:17:38;;;;;;;17.42;10.18;;;;;;;1.98;71.83;103682.44;5114019;28;20047;-63
2023/02/08 11:20:06;;;;;;;17.60;9.70;;;;;;;2.07;73.18;103673.53;5110660;28;20059;-63
2023/02/08 11:22:35;;;;;;;17.60;10.55;;;;;;;2.11;72.56;103677.63;5090987;28;20059;-65
2023/02/08 11:25:12;;;;;;;15.90;10.18;;;;;;;2.14;72.38;103673.81;5097426;28;20102;-64
2023/02/08 11:27:48;;;;;;;17.02;10.77;;;;;;;2.18;71.19;103669.00;5079856;28;20105;-65
2023/02/08 11:30:23;;;;;;;13.52;9.38;;;;;;;2.21;71.21;103672.25;5092339;28;20048;-64
2023/02/08 11:33:17;;;;;;;12.70;8.93;;;;;;;2.24;71.97;103673.84;5097813;28;20044;-64
2023/02/08 11:35:57;;;;;;;19.80;9.93;;;;;;;2.28;71.62;103670.69;5113390;28;20046;-64
2023/02/08 11:38:27;;;;;;;15.70;9.70;;;;;;;2.35;71.53;103660.22;5099613;28;20425;-63
2023/02/08 11:40:58;;;;;;;14.43;9.25;;;;;;;2.38;71.23;103659.06;5075833;28;20492;-64
2023/02/08 11:43:29;;;;;;;14.30;9.55;;;;;;;2.38;71.37;103653.69;5093201;28;20044;-63
2023/02/08 11:45:57;;;;;;;17.90;10.40;;;;;;;2.37;70.78;103650.16;5092390;28;20051;-63